sensor_id;sensor_type;location;lat;lon;timestamp;P1;durP1;ratioP1;P2;durP2;ratioP2
46318;SDS011;32042;50.916;2.926;2022-09-28T00:00:25;6.00;;;4.10;;
46318;SDS011;32042;50.916;2.926;2022-09-28T00:02:53;6.20;;;3.83;;
46318;SDS011;32042;50.916;2.926;2022-09-28T00:05:21;9.33;;;4.97;;
46318;SDS011;32042;50.916;2.926;2022-09-28T00:07:50;11.97;;;6.13;;
46318;SDS011;32042;50.916;2.926;2022-09-28T00:10:23;9.23;;;5.70;;
46318;SDS011;32042;50.916;2.926;2022-09-28T00:12:49;9.53;;;6.50;;
46318;SDS011;32042;50.916;2.926;2022-09-28T00:15:16;8.53;;;4.40;;
46318;SDS011;32042;50.916;2.926;2022-09-28T00:17:42;7.57;;;4.20;;
46318;SDS011;32042;50.916;2.926;2022-09-28T00:20:11;7.93;;;3.47;;
46318;SDS011;32042;50.916;2.926;2022-09-28T00:22:37;10.70;;;2.80;;
46318;SDS011;32042;50.916;2.926;2022-09-28T00:25:04;7.60;;;2.27;;
46318;SDS011;32042;50.916;2.926;2022-09-28T00:27:30;5.13;;;1.87;;
46318;SDS011;32042;50.916;2.926;2022-09-28T00:29:56;6.97;;;1.77;;
46318;SDS011;32042;50.916;2.926;2022-09-28T00:32:22;3.27;;;1.63;;
46318;SDS011;32042;50.916;2.926;2022-09-28T00:34:49;1.63;;;0.57;;
46318;SDS011;32042;50.916;2.926;2022-09-28T00:37:16;3.70;;;0.70;;
46318;SDS011;32042;50.916;2.926;2022-09-28T00:39:43;1.60;;;0.77;;
46318;SDS011;32042;50.916;2.926;2022-09-28T00:42:14;2.03;;;0.57;;
46318;SDS011;32042;50.916;2.926;2022-09-28T00:47:15;1.77;;;0.87;;
46318;SDS011;32042;50.916;2.926;2022-09-28T00:52:50;4.93;;;1.00;;
46318;SDS011;32042;50.916;2.926;2022-09-28T00:58:07;4.33;;;1.30;;
46318;SDS011;32042;50.916;2.926;2022-09-28T01:00:36;9.10;;;1.63;;
46318;SDS011;32042;50.916;2.926;2022-09-28T01:03:04;4.83;;;1.60;;
46318;SDS011;32042;50.916;2.926;2022-09-28T01:05:31;5.10;;;1.77;;
46318;SDS011;32042;50.916;2.926;2022-09-28T01:07:58;8.03;;;1.73;;
46318;SDS011;32042;50.916;2.926;2022-09-28T01:10:26;5.13;;;2.17;;
46318;SDS011;32042;50.916;2.926;2022-09-28T01:12:54;3.57;;;1.40;;
46318;SDS011;32042;50.916;2.926;2022-09-28T01:15:20;6.33;;;1.70;;
46318;SDS011;32042;50.916;2.926;2022-09-28T01:20:34;4.83;;;1.70;;
46318;SDS011;32042;50.916;2.926;2022-09-28T01:29:04;3.07;;;1.40;;
46318;SDS011;32042;50.916;2.926;2022-09-28T01:31:48;5.03;;;1.63;;
46318;SDS011;32042;50.916;2.926;2022-09-28T01:34:22;4.63;;;1.70;;
46318;SDS011;32042;50.916;2.926;2022-09-28T01:36:54;3.67;;;1.80;;
46318;SDS011;32042;50.916;2.926;2022-09-28T01:39:27;6.73;;;2.03;;
46318;SDS011;32042;50.916;2.926;2022-09-28T01:41:58;6.20;;;2.10;;
46318;SDS011;32042;50.916;2.926;2022-09-28T01:44:28;5.23;;;1.67;;
46318;SDS011;32042;50.916;2.926;2022-09-28T01:46:57;4.13;;;1.63;;
46318;SDS011;32042;50.916;2.926;2022-09-28T01:49:35;5.07;;;1.60;;
46318;SDS011;32042;50.916;2.926;2022-09-28T01:52:23;6.10;;;1.90;;
46318;SDS011;32042;50.916;2.926;2022-09-28T01:57:37;6.93;;;2.10;;
46318;SDS011;32042;50.916;2.926;2022-09-28T02:00:22;4.80;;;1.53;;
46318;SDS011;32042;50.916;2.926;2022-09-28T02:02:59;6.63;;;1.57;;
46318;SDS011;32042;50.916;2.926;2022-09-28T02:06:14;5.97;;;1.53;;
46318;SDS011;32042;50.916;2.926;2022-09-28T02:08:29;4.00;;;1.90;;
46318;SDS011;32042;50.916;2.926;2022-09-28T02:13:34;5.03;;;1.63;;
46318;SDS011;32042;50.916;2.926;2022-09-28T02:18:48;10.60;;;2.33;;
46318;SDS011;32042;50.916;2.926;2022-09-28T02:21:16;6.23;;;1.70;;
46318;SDS011;32042;50.916;2.926;2022-09-28T02:23:52;3.20;;;1.73;;
46318;SDS011;32042;50.916;2.926;2022-09-28T02:26:21;5.80;;;1.80;;
46318;SDS011;32042;50.916;2.926;2022-09-28T02:28:53;5.77;;;1.80;;
46318;SDS011;32042;50.916;2.926;2022-09-28T02:31:19;5.90;;;1.80;;
46318;SDS011;32042;50.916;2.926;2022-09-28T02:33:46;4.77;;;1.87;;
46318;SDS011;32042;50.916;2.926;2022-09-28T02:36:15;9.07;;;1.93;;
46318;SDS011;32042;50.916;2.926;2022-09-28T02:38:42;6.00;;;1.90;;
46318;SDS011;32042;50.916;2.926;2022-09-28T02:41:23;6.23;;;2.10;;
46318;SDS011;32042;50.916;2.926;2022-09-28T02:49:40;7.03;;;2.30;;
46318;SDS011;32042;50.916;2.926;2022-09-28T03:01:01;7.63;;;2.10;;
46318;SDS011;32042;50.916;2.926;2022-09-28T03:03:49;6.37;;;1.83;;
46318;SDS011;32042;50.916;2.926;2022-09-28T03:08:58;5.13;;;1.80;;
46318;SDS011;32042;50.916;2.926;2022-09-28T03:11:30;3.97;;;1.57;;
46318;SDS011;32042;50.916;2.926;2022-09-28T03:14:00;4.63;;;1.80;;
46318;SDS011;32042;50.916;2.926;2022-09-28T03:16:28;2.53;;;1.27;;
46318;SDS011;32042;50.916;2.926;2022-09-28T03:18:56;2.07;;;1.33;;
46318;SDS011;32042;50.916;2.926;2022-09-28T03:21:21;8.30;;;1.77;;
46318;SDS011;32042;50.916;2.926;2022-09-28T03:23:47;4.03;;;1.70;;
46318;SDS011;32042;50.916;2.926;2022-09-28T03:26:13;4.03;;;1.87;;
46318;SDS011;32042;50.916;2.926;2022-09-28T03:28:41;3.50;;;1.43;;
46318;SDS011;32042;50.916;2.926;2022-09-28T03:31:07;3.93;;;1.13;;
46318;SDS011;32042;50.916;2.926;2022-09-28T03:33:33;3.03;;;1.17;;
46318;SDS011;32042;50.916;2.926;2022-09-28T03:35:59;1.83;;;1.10;;
46318;SDS011;32042;50.916;2.926;2022-09-28T03:38:25;3.00;;;1.50;;
46318;SDS011;32042;50.916;2.926;2022-09-28T03:40:54;4.83;;;1.90;;
46318;SDS011;32042;50.916;2.926;2022-09-28T03:43:22;3.33;;;1.10;;
46318;SDS011;32042;50.916;2.926;2022-09-28T03:45:52;4.00;;;1.10;;
46318;SDS011;32042;50.916;2.926;2022-09-28T03:48:25;4.67;;;1.10;;
46318;SDS011;32042;50.916;2.926;2022-09-28T03:50:53;2.77;;;0.97;;
46318;SDS011;32042;50.916;2.926;2022-09-28T03:53:20;2.70;;;1.10;;
46318;SDS011;32042;50.916;2.926;2022-09-28T03:55:46;3.53;;;1.13;;
46318;SDS011;32042;50.916;2.926;2022-09-28T03:58:12;3.20;;;1.30;;
46318;SDS011;32042;50.916;2.926;2022-09-28T04:00:38;3.00;;;1.17;;
46318;SDS011;32042;50.916;2.926;2022-09-28T04:03:04;3.00;;;0.93;;
46318;SDS011;32042;50.916;2.926;2022-09-28T04:05:30;2.43;;;0.90;;
46318;SDS011;32042;50.916;2.926;2022-09-28T04:07:56;4.63;;;0.87;;
46318;SDS011;32042;50.916;2.926;2022-09-28T04:10:22;4.27;;;0.80;;
46318;SDS011;32042;50.916;2.926;2022-09-28T04:12:48;2.53;;;1.03;;
46318;SDS011;32042;50.916;2.926;2022-09-28T04:15:17;3.23;;;0.90;;
46318;SDS011;32042;50.916;2.926;2022-09-28T04:17:43;1.20;;;0.90;;
46318;SDS011;32042;50.916;2.926;2022-09-28T04:20:09;1.13;;;0.63;;
46318;SDS011;32042;50.916;2.926;2022-09-28T04:22:34;2.33;;;0.90;;
46318;SDS011;32042;50.916;2.926;2022-09-28T04:25:02;2.00;;;1.00;;
46318;SDS011;32042;50.916;2.926;2022-09-28T04:27:28;1.73;;;0.90;;
46318;SDS011;32042;50.916;2.926;2022-09-28T04:30:12;3.80;;;1.23;;
46318;SDS011;32042;50.916;2.926;2022-09-28T04:32:38;3.13;;;1.10;;
46318;SDS011;32042;50.916;2.926;2022-09-28T04:35:07;2.73;;;1.20;;
46318;SDS011;32042;50.916;2.926;2022-09-28T04:37:34;2.13;;;1.10;;
46318;SDS011;32042;50.916;2.926;2022-09-28T04:40:00;3.23;;;1.40;;
46318;SDS011;32042;50.916;2.926;2022-09-28T04:42:26;2.03;;;1.40;;
46318;SDS011;32042;50.916;2.926;2022-09-28T04:44:51;2.50;;;1.20;;
46318;SDS011;32042;50.916;2.926;2022-09-28T04:47:17;2.53;;;1.33;;
46318;SDS011;32042;50.916;2.926;2022-09-28T04:49:43;4.90;;;1.97;;
46318;SDS011;32042;50.916;2.926;2022-09-28T04:52:08;3.20;;;1.60;;
46318;SDS011;32042;50.916;2.926;2022-09-28T04:54:34;3.50;;;1.40;;
46318;SDS011;32042;50.916;2.926;2022-09-28T04:57:00;4.50;;;1.80;;
46318;SDS011;32042;50.916;2.926;2022-09-28T04:59:27;1.93;;;1.50;;
46318;SDS011;32042;50.916;2.926;2022-09-28T05:01:53;6.33;;;1.93;;
46318;SDS011;32042;50.916;2.926;2022-09-28T05:04:18;2.73;;;1.57;;
46318;SDS011;32042;50.916;2.926;2022-09-28T05:06:44;6.47;;;2.10;;
46318;SDS011;32042;50.916;2.926;2022-09-28T05:09:10;2.90;;;1.73;;
46318;SDS011;32042;50.916;2.926;2022-09-28T05:11:35;3.17;;;1.70;;
46318;SDS011;32042;50.916;2.926;2022-09-28T05:14:01;7.70;;;1.90;;
46318;SDS011;32042;50.916;2.926;2022-09-28T05:16:27;6.57;;;2.37;;
46318;SDS011;32042;50.916;2.926;2022-09-28T05:18:55;3.13;;;1.97;;
46318;SDS011;32042;50.916;2.926;2022-09-28T05:21:20;4.37;;;2.20;;
46318;SDS011;32042;50.916;2.926;2022-09-28T05:23:49;6.63;;;2.67;;
46318;SDS011;32042;50.916;2.926;2022-09-28T05:26:15;8.20;;;2.83;;
46318;SDS011;32042;50.916;2.926;2022-09-28T05:28:40;6.87;;;2.73;;
46318;SDS011;32042;50.916;2.926;2022-09-28T05:31:06;6.87;;;3.00;;
46318;SDS011;32042;50.916;2.926;2022-09-28T05:33:32;6.90;;;2.97;;
46318;SDS011;32042;50.916;2.926;2022-09-28T05:35:58;7.03;;;3.43;;
46318;SDS011;32042;50.916;2.926;2022-09-28T05:38:24;8.10;;;3.83;;
46318;SDS011;32042;50.916;2.926;2022-09-28T05:40:50;9.20;;;3.43;;
46318;SDS011;32042;50.916;2.926;2022-09-28T05:43:16;5.73;;;3.20;;
46318;SDS011;32042;50.916;2.926;2022-09-28T05:45:41;10.53;;;3.80;;
46318;SDS011;32042;50.916;2.926;2022-09-28T05:48:07;8.90;;;3.40;;
46318;SDS011;32042;50.916;2.926;2022-09-28T05:50:33;7.77;;;3.63;;
46318;SDS011;32042;50.916;2.926;2022-09-28T05:52:59;5.47;;;3.33;;
46318;SDS011;32042;50.916;2.926;2022-09-28T05:55:26;9.67;;;3.87;;
46318;SDS011;32042;50.916;2.926;2022-09-28T05:57:52;5.07;;;3.37;;
46318;SDS011;32042;50.916;2.926;2022-09-28T06:00:17;6.27;;;3.13;;
46318;SDS011;32042;50.916;2.926;2022-09-28T06:02:43;6.17;;;3.40;;
46318;SDS011;32042;50.916;2.926;2022-09-28T06:05:09;7.00;;;3.83;;
46318;SDS011;32042;50.916;2.926;2022-09-28T06:07:34;6.77;;;3.83;;
46318;SDS011;32042;50.916;2.926;2022-09-28T06:10:00;5.63;;;3.73;;
46318;SDS011;32042;50.916;2.926;2022-09-28T06:12:26;9.80;;;3.80;;
46318;SDS011;32042;50.916;2.926;2022-09-28T06:14:51;7.70;;;3.40;;
46318;SDS011;32042;50.916;2.926;2022-09-28T06:17:17;7.93;;;3.83;;
46318;SDS011;32042;50.916;2.926;2022-09-28T06:19:43;8.20;;;3.47;;
46318;SDS011;32042;50.916;2.926;2022-09-28T06:22:08;6.67;;;3.77;;
46318;SDS011;32042;50.916;2.926;2022-09-28T06:24:34;7.23;;;3.97;;
46318;SDS011;32042;50.916;2.926;2022-09-28T06:27:00;6.83;;;3.77;;
46318;SDS011;32042;50.916;2.926;2022-09-28T06:29:25;7.80;;;3.27;;
46318;SDS011;32042;50.916;2.926;2022-09-28T06:31:51;11.07;;;3.90;;
46318;SDS011;32042;50.916;2.926;2022-09-28T06:34:16;9.27;;;3.70;;
46318;SDS011;32042;50.916;2.926;2022-09-28T06:36:42;4.93;;;4.00;;
46318;SDS011;32042;50.916;2.926;2022-09-28T06:39:08;9.10;;;4.70;;
46318;SDS011;32042;50.916;2.926;2022-09-28T06:41:34;5.87;;;3.47;;
46318;SDS011;32042;50.916;2.926;2022-09-28T06:44:00;6.50;;;3.07;;
46318;SDS011;32042;50.916;2.926;2022-09-28T06:46:27;6.83;;;3.30;;
46318;SDS011;32042;50.916;2.926;2022-09-28T06:48:54;6.17;;;3.87;;
46318;SDS011;32042;50.916;2.926;2022-09-28T06:51:19;9.90;;;3.87;;
46318;SDS011;32042;50.916;2.926;2022-09-28T06:53:45;11.13;;;3.60;;
46318;SDS011;32042;50.916;2.926;2022-09-28T06:56:11;14.37;;;8.33;;
46318;SDS011;32042;50.916;2.926;2022-09-28T06:58:37;7.57;;;3.67;;
46318;SDS011;32042;50.916;2.926;2022-09-28T07:01:03;5.50;;;3.23;;
46318;SDS011;32042;50.916;2.926;2022-09-28T07:03:29;5.87;;;3.50;;
46318;SDS011;32042;50.916;2.926;2022-09-28T07:05:55;7.50;;;3.20;;
46318;SDS011;32042;50.916;2.926;2022-09-28T07:08:22;6.53;;;3.00;;
46318;SDS011;32042;50.916;2.926;2022-09-28T07:10:50;6.07;;;3.00;;
46318;SDS011;32042;50.916;2.926;2022-09-28T07:13:20;8.03;;;3.40;;
46318;SDS011;32042;50.916;2.926;2022-09-28T07:15:47;7.80;;;3.53;;
46318;SDS011;32042;50.916;2.926;2022-09-28T07:18:13;5.10;;;3.20;;
46318;SDS011;32042;50.916;2.926;2022-09-28T07:20:38;7.43;;;3.30;;
46318;SDS011;32042;50.916;2.926;2022-09-28T07:23:05;6.17;;;3.50;;
46318;SDS011;32042;50.916;2.926;2022-09-28T07:25:34;8.53;;;3.77;;
46318;SDS011;32042;50.916;2.926;2022-09-28T07:28:01;7.17;;;3.07;;
46318;SDS011;32042;50.916;2.926;2022-09-28T07:30:30;7.87;;;3.50;;
46318;SDS011;32042;50.916;2.926;2022-09-28T07:33:01;6.40;;;3.20;;
46318;SDS011;32042;50.916;2.926;2022-09-28T07:35:30;4.83;;;3.73;;
46318;SDS011;32042;50.916;2.926;2022-09-28T07:37:58;7.03;;;4.00;;
46318;SDS011;32042;50.916;2.926;2022-09-28T07:40:25;5.93;;;3.80;;
46318;SDS011;32042;50.916;2.926;2022-09-28T07:43:10;6.47;;;4.20;;
46318;SDS011;32042;50.916;2.926;2022-09-28T07:45:37;5.67;;;4.03;;
46318;SDS011;32042;50.916;2.926;2022-09-28T07:48:03;9.90;;;3.90;;
46318;SDS011;32042;50.916;2.926;2022-09-28T07:50:29;3.73;;;3.30;;
46318;SDS011;32042;50.916;2.926;2022-09-28T07:52:56;5.10;;;3.33;;
46318;SDS011;32042;50.916;2.926;2022-09-28T07:55:22;7.17;;;3.23;;
46318;SDS011;32042;50.916;2.926;2022-09-28T07:57:55;5.73;;;3.30;;
46318;SDS011;32042;50.916;2.926;2022-09-28T08:00:23;5.67;;;3.00;;
46318;SDS011;32042;50.916;2.926;2022-09-28T08:02:49;5.93;;;2.97;;
46318;SDS011;32042;50.916;2.926;2022-09-28T08:05:15;6.07;;;2.40;;
46318;SDS011;32042;50.916;2.926;2022-09-28T08:07:41;3.50;;;2.50;;
46318;SDS011;32042;50.916;2.926;2022-09-28T08:10:07;6.13;;;3.00;;
46318;SDS011;32042;50.916;2.926;2022-09-28T08:12:33;4.17;;;2.30;;
46318;SDS011;32042;50.916;2.926;2022-09-28T08:15:00;4.47;;;2.00;;
46318;SDS011;32042;50.916;2.926;2022-09-28T08:17:26;3.03;;;2.30;;
46318;SDS011;32042;50.916;2.926;2022-09-28T08:19:51;3.87;;;2.27;;
46318;SDS011;32042;50.916;2.926;2022-09-28T08:22:35;4.97;;;2.00;;
46318;SDS011;32042;50.916;2.926;2022-09-28T08:25:01;6.53;;;3.00;;
46318;SDS011;32042;50.916;2.926;2022-09-28T08:27:27;6.47;;;2.10;;
46318;SDS011;32042;50.916;2.926;2022-09-28T08:29:52;3.60;;;2.00;;
46318;SDS011;32042;50.916;2.926;2022-09-28T08:32:18;3.13;;;2.00;;
46318;SDS011;32042;50.916;2.926;2022-09-28T08:34:44;5.87;;;2.07;;
46318;SDS011;32042;50.916;2.926;2022-09-28T08:37:10;2.60;;;1.50;;
46318;SDS011;32042;50.916;2.926;2022-09-28T08:39:36;1.70;;;1.50;;
46318;SDS011;32042;50.916;2.926;2022-09-28T08:45:17;4.30;;;1.63;;
46318;SDS011;32042;50.916;2.926;2022-09-28T08:47:50;2.10;;;1.27;;
46318;SDS011;32042;50.916;2.926;2022-09-28T08:50:49;6.07;;;1.80;;
46318;SDS011;32042;50.916;2.926;2022-09-28T08:56:17;1.20;;;0.50;;
46318;SDS011;32042;50.916;2.926;2022-09-28T08:59:09;0.90;;;0.40;;
46318;SDS011;32042;50.916;2.926;2022-09-28T09:01:41;1.43;;;0.43;;
46318;SDS011;32042;50.916;2.926;2022-09-28T09:04:12;2.80;;;0.70;;
46318;SDS011;32042;50.916;2.926;2022-09-28T09:06:53;2.17;;;0.50;;
46318;SDS011;32042;50.916;2.926;2022-09-28T09:15:08;1.10;;;0.30;;
46318;SDS011;32042;50.916;2.926;2022-09-28T09:18:18;0.77;;;0.40;;
46318;SDS011;32042;50.916;2.926;2022-09-28T09:23:18;1.27;;;0.30;;
46318;SDS011;32042;50.916;2.926;2022-09-28T09:25:52;1.27;;;0.30;;
46318;SDS011;32042;50.916;2.926;2022-09-28T09:36:38;1.27;;;0.40;;
46318;SDS011;32042;50.916;2.926;2022-09-28T09:42:43;1.17;;;0.73;;
46318;SDS011;32042;50.916;2.926;2022-09-28T09:47:37;3.83;;;0.30;;
46318;SDS011;32042;50.916;2.926;2022-09-28T09:52:55;4.90;;;0.70;;
46318;SDS011;32042;50.916;2.926;2022-09-28T09:55:42;4.83;;;0.73;;
46318;SDS011;32042;50.916;2.926;2022-09-28T10:00:46;1.47;;;0.77;;
46318;SDS011;32042;50.916;2.926;2022-09-28T10:03:21;2.67;;;0.70;;
46318;SDS011;32042;50.916;2.926;2022-09-28T10:06:10;1.77;;;0.80;;
46318;SDS011;32042;50.916;2.926;2022-09-28T10:08:48;3.03;;;1.73;;
46318;SDS011;32042;50.916;2.926;2022-09-28T10:11:26;3.97;;;1.77;;
46318;SDS011;32042;50.916;2.926;2022-09-28T10:13:55;6.67;;;1.90;;
46318;SDS011;32042;50.916;2.926;2022-09-28T10:16:21;5.50;;;1.67;;
46318;SDS011;32042;50.916;2.926;2022-09-28T10:18:48;5.67;;;1.20;;
46318;SDS011;32042;50.916;2.926;2022-09-28T10:21:14;5.23;;;1.63;;
46318;SDS011;32042;50.916;2.926;2022-09-28T10:23:42;4.53;;;1.30;;
46318;SDS011;32042;50.916;2.926;2022-09-28T10:26:11;5.43;;;1.13;;
46318;SDS011;32042;50.916;2.926;2022-09-28T10:29:03;7.90;;;1.50;;
46318;SDS011;32042;50.916;2.926;2022-09-28T10:34:03;4.27;;;1.70;;
46318;SDS011;32042;50.916;2.926;2022-09-28T10:36:31;3.23;;;1.40;;
46318;SDS011;32042;50.916;2.926;2022-09-28T10:39:03;4.70;;;2.03;;
46318;SDS011;32042;50.916;2.926;2022-09-28T10:41:30;4.40;;;1.57;;
46318;SDS011;32042;50.916;2.926;2022-09-28T10:43:56;4.77;;;1.60;;
46318;SDS011;32042;50.916;2.926;2022-09-28T10:46:33;4.07;;;1.23;;
46318;SDS011;32042;50.916;2.926;2022-09-28T10:49:01;6.13;;;1.30;;
46318;SDS011;32042;50.916;2.926;2022-09-28T10:51:47;3.50;;;1.00;;
46318;SDS011;32042;50.916;2.926;2022-09-28T10:54:16;5.80;;;1.00;;
46318;SDS011;32042;50.916;2.926;2022-09-28T10:56:45;3.70;;;1.30;;
46318;SDS011;32042;50.916;2.926;2022-09-28T10:59:54;2.93;;;1.17;;
46318;SDS011;32042;50.916;2.926;2022-09-28T11:04:58;3.30;;;1.30;;
46318;SDS011;32042;50.916;2.926;2022-09-28T11:07:26;2.53;;;1.37;;
46318;SDS011;32042;50.916;2.926;2022-09-28T11:09:54;3.20;;;1.43;;
46318;SDS011;32042;50.916;2.926;2022-09-28T11:12:32;5.57;;;1.50;;
46318;SDS011;32042;50.916;2.926;2022-09-28T11:15:04;4.63;;;1.20;;
46318;SDS011;32042;50.916;2.926;2022-09-28T11:17:32;3.83;;;1.03;;
46318;SDS011;32042;50.916;2.926;2022-09-28T11:22:56;2.40;;;1.10;;
46318;SDS011;32042;50.916;2.926;2022-09-28T11:25:24;4.43;;;1.53;;
46318;SDS011;32042;50.916;2.926;2022-09-28T11:27:56;4.20;;;1.33;;
46318;SDS011;32042;50.916;2.926;2022-09-28T11:30:28;3.97;;;1.50;;
46318;SDS011;32042;50.916;2.926;2022-09-28T11:33:14;4.20;;;1.40;;
46318;SDS011;32042;50.916;2.926;2022-09-28T11:49:14;8.27;;;2.50;;
46318;SDS011;32042;50.916;2.926;2022-09-28T11:51:41;5.47;;;1.83;;
46318;SDS011;32042;50.916;2.926;2022-09-28T11:56:45;2.77;;;1.90;;
46318;SDS011;32042;50.916;2.926;2022-09-28T11:59:14;3.77;;;1.60;;
46318;SDS011;32042;50.916;2.926;2022-09-28T12:04:51;3.07;;;1.50;;
46318;SDS011;32042;50.916;2.926;2022-09-28T12:07:36;3.37;;;1.50;;
46318;SDS011;32042;50.916;2.926;2022-09-28T12:11:17;1.63;;;0.90;;
46318;SDS011;32042;50.916;2.926;2022-09-28T12:13:18;2.23;;;1.07;;
46318;SDS011;32042;50.916;2.926;2022-09-28T12:15:54;4.53;;;1.40;;
46318;SDS011;32042;50.916;2.926;2022-09-28T12:21:36;2.33;;;1.30;;
46318;SDS011;32042;50.916;2.926;2022-09-28T12:26:50;3.80;;;1.10;;
46318;SDS011;32042;50.916;2.926;2022-09-28T12:29:27;2.47;;;1.13;;
46318;SDS011;32042;50.916;2.926;2022-09-28T12:32:13;1.47;;;1.10;;
46318;SDS011;32042;50.916;2.926;2022-09-28T12:34:51;1.73;;;0.60;;
46318;SDS011;32042;50.916;2.926;2022-09-28T12:45:41;6.50;;;0.60;;
46318;SDS011;32042;50.916;2.926;2022-09-28T12:51:13;0.40;;;0.40;;
46318;SDS011;32042;50.916;2.926;2022-09-28T12:59:05;4.40;;;0.97;;
46318;SDS011;32042;50.916;2.926;2022-09-28T13:07:31;1.73;;;0.70;;
46318;SDS011;32042;50.916;2.926;2022-09-28T13:10:12;1.60;;;0.60;;
46318;SDS011;32042;50.916;2.926;2022-09-28T13:18:16;2.40;;;1.00;;
46318;SDS011;32042;50.916;2.926;2022-09-28T13:23:36;2.63;;;0.80;;
46318;SDS011;32042;50.916;2.926;2022-09-28T13:26:08;1.80;;;0.60;;
46318;SDS011;32042;50.916;2.926;2022-09-28T13:28:51;1.77;;;0.70;;
46318;SDS011;32042;50.916;2.926;2022-09-28T13:31:21;2.37;;;0.67;;
46318;SDS011;32042;50.916;2.926;2022-09-28T13:33:55;0.97;;;0.40;;
46318;SDS011;32042;50.916;2.926;2022-09-28T13:38:52;1.67;;;0.60;;
46318;SDS011;32042;50.916;2.926;2022-09-28T13:52:51;5.20;;;1.10;;
46318;SDS011;32042;50.916;2.926;2022-09-28T14:01:25;1.27;;;0.73;;
46318;SDS011;32042;50.916;2.926;2022-09-28T14:16:39;2.03;;;0.50;;
46318;SDS011;32042;50.916;2.926;2022-09-28T14:19:15;1.87;;;0.50;;
46318;SDS011;32042;50.916;2.926;2022-09-28T14:32:36;1.70;;;0.50;;
46318;SDS011;32042;50.916;2.926;2022-09-28T14:35:04;1.17;;;0.60;;
46318;SDS011;32042;50.916;2.926;2022-09-28T14:37:33;1.17;;;0.50;;
46318;SDS011;32042;50.916;2.926;2022-09-28T14:46:37;1.47;;;0.73;;
46318;SDS011;32042;50.916;2.926;2022-09-28T14:53:50;1.17;;;0.70;;
46318;SDS011;32042;50.916;2.926;2022-09-28T15:01:58;2.10;;;0.60;;
46318;SDS011;32042;50.916;2.926;2022-09-28T15:04:30;5.47;;;0.80;;
46318;SDS011;32042;50.916;2.926;2022-09-28T15:07:00;2.47;;;0.70;;
46318;SDS011;32042;50.916;2.926;2022-09-28T15:09:36;1.57;;;0.77;;
46318;SDS011;32042;50.916;2.926;2022-09-28T15:14:41;4.30;;;1.13;;
46318;SDS011;32042;50.916;2.926;2022-09-28T15:17:10;4.23;;;0.83;;
46318;SDS011;32042;50.916;2.926;2022-09-28T15:19:50;1.07;;;0.83;;
46318;SDS011;32042;50.916;2.926;2022-09-28T15:22:36;1.80;;;0.90;;
46318;SDS011;32042;50.916;2.926;2022-09-28T15:25:11;0.70;;;0.70;;
46318;SDS011;32042;50.916;2.926;2022-09-28T15:27:39;2.63;;;1.00;;
46318;SDS011;32042;50.916;2.926;2022-09-28T15:32:52;2.77;;;0.90;;
46318;SDS011;32042;50.916;2.926;2022-09-28T15:35:22;3.03;;;0.83;;
46318;SDS011;32042;50.916;2.926;2022-09-28T15:37:50;3.53;;;1.10;;
46318;SDS011;32042;50.916;2.926;2022-09-28T15:40:29;1.33;;;0.80;;
46318;SDS011;32042;50.916;2.926;2022-09-28T15:42:57;1.90;;;0.70;;
46318;SDS011;32042;50.916;2.926;2022-09-28T15:45:25;0.70;;;0.50;;
46318;SDS011;32042;50.916;2.926;2022-09-28T15:51:05;4.23;;;2.93;;
46318;SDS011;32042;50.916;2.926;2022-09-28T15:53:45;1.00;;;0.90;;
46318;SDS011;32042;50.916;2.926;2022-09-28T15:56:30;4.07;;;3.67;;
46318;SDS011;32042;50.916;2.926;2022-09-28T16:01:43;4.53;;;1.77;;
46318;SDS011;32042;50.916;2.926;2022-09-28T16:12:21;2.13;;;1.40;;
46318;SDS011;32042;50.916;2.926;2022-09-28T16:14:49;2.27;;;1.10;;
46318;SDS011;32042;50.916;2.926;2022-09-28T16:17:21;1.50;;;0.87;;
46318;SDS011;32042;50.916;2.926;2022-09-28T16:20:00;1.00;;;0.70;;
46318;SDS011;32042;50.916;2.926;2022-09-28T16:22:28;0.80;;;0.60;;
46318;SDS011;32042;50.916;2.926;2022-09-28T16:24:58;4.33;;;1.67;;
46318;SDS011;32042;50.916;2.926;2022-09-28T16:27:27;2.93;;;1.47;;
46318;SDS011;32042;50.916;2.926;2022-09-28T16:30:28;4.47;;;0.70;;
46318;SDS011;32042;50.916;2.926;2022-09-28T16:36:10;2.27;;;0.70;;
46318;SDS011;32042;50.916;2.926;2022-09-28T16:38:38;1.57;;;0.67;;
46318;SDS011;32042;50.916;2.926;2022-09-28T16:41:04;1.83;;;0.70;;
46318;SDS011;32042;50.916;2.926;2022-09-28T16:43:30;3.63;;;0.90;;
46318;SDS011;32042;50.916;2.926;2022-09-28T16:45:59;1.63;;;0.97;;
46318;SDS011;32042;50.916;2.926;2022-09-28T16:48:37;26.10;;;16.23;;
46318;SDS011;32042;50.916;2.926;2022-09-28T16:51:09;11.97;;;8.03;;
46318;SDS011;32042;50.916;2.926;2022-09-28T16:53:35;15.30;;;8.87;;
46318;SDS011;32042;50.916;2.926;2022-09-28T16:56:19;1.20;;;1.10;;
46318;SDS011;32042;50.916;2.926;2022-09-28T16:58:46;1.87;;;1.10;;
46318;SDS011;32042;50.916;2.926;2022-09-28T17:01:13;5.13;;;3.63;;
46318;SDS011;32042;50.916;2.926;2022-09-28T17:03:39;8.83;;;5.23;;
46318;SDS011;32042;50.916;2.926;2022-09-28T17:06:11;7.03;;;6.20;;
46318;SDS011;32042;50.916;2.926;2022-09-28T17:08:37;2.83;;;1.57;;
46318;SDS011;32042;50.916;2.926;2022-09-28T17:11:03;1.60;;;1.20;;
46318;SDS011;32042;50.916;2.926;2022-09-28T17:13:30;2.67;;;1.63;;
46318;SDS011;32042;50.916;2.926;2022-09-28T17:15:58;3.83;;;1.60;;
46318;SDS011;32042;50.916;2.926;2022-09-28T17:18:44;3.10;;;1.67;;
46318;SDS011;32042;50.916;2.926;2022-09-28T17:21:12;2.00;;;1.50;;
46318;SDS011;32042;50.916;2.926;2022-09-28T17:23:40;1.97;;;1.37;;
46318;SDS011;32042;50.916;2.926;2022-09-28T17:26:06;2.83;;;1.43;;
46318;SDS011;32042;50.916;2.926;2022-09-28T17:28:37;2.20;;;2.00;;
46318;SDS011;32042;50.916;2.926;2022-09-28T17:31:03;4.33;;;1.60;;
46318;SDS011;32042;50.916;2.926;2022-09-28T17:33:30;2.30;;;1.53;;
46318;SDS011;32042;50.916;2.926;2022-09-28T17:35:57;3.33;;;1.73;;
46318;SDS011;32042;50.916;2.926;2022-09-28T17:38:25;1.93;;;1.20;;
46318;SDS011;32042;50.916;2.926;2022-09-28T17:40:51;6.50;;;1.50;;
46318;SDS011;32042;50.916;2.926;2022-09-28T17:43:16;5.50;;;1.57;;
46318;SDS011;32042;50.916;2.926;2022-09-28T17:45:44;4.17;;;1.93;;
46318;SDS011;32042;50.916;2.926;2022-09-28T17:48:12;4.00;;;1.47;;
46318;SDS011;32042;50.916;2.926;2022-09-28T17:50:39;3.13;;;1.60;;
46318;SDS011;32042;50.916;2.926;2022-09-28T17:53:07;1.77;;;1.53;;
46318;SDS011;32042;50.916;2.926;2022-09-28T17:55:34;4.00;;;1.80;;
46318;SDS011;32042;50.916;2.926;2022-09-28T17:58:02;2.67;;;1.40;;
46318;SDS011;32042;50.916;2.926;2022-09-28T18:00:41;3.40;;;1.90;;
46318;SDS011;32042;50.916;2.926;2022-09-28T18:03:10;6.63;;;2.57;;
46318;SDS011;32042;50.916;2.926;2022-09-28T18:05:39;4.10;;;1.57;;
46318;SDS011;32042;50.916;2.926;2022-09-28T18:08:07;2.77;;;2.47;;
46318;SDS011;32042;50.916;2.926;2022-09-28T18:10:35;3.70;;;1.80;;
46318;SDS011;32042;50.916;2.926;2022-09-28T18:13:01;3.60;;;1.30;;
46318;SDS011;32042;50.916;2.926;2022-09-28T18:15:27;3.40;;;2.17;;
46318;SDS011;32042;50.916;2.926;2022-09-28T18:17:52;5.80;;;2.10;;
46318;SDS011;32042;50.916;2.926;2022-09-28T18:20:18;4.47;;;1.70;;
46318;SDS011;32042;50.916;2.926;2022-09-28T18:22:44;4.77;;;1.87;;
46318;SDS011;32042;50.916;2.926;2022-09-28T18:25:09;15.10;;;6.47;;
46318;SDS011;32042;50.916;2.926;2022-09-28T18:27:35;3.10;;;2.00;;
46318;SDS011;32042;50.916;2.926;2022-09-28T18:30:02;4.73;;;2.00;;
46318;SDS011;32042;50.916;2.926;2022-09-28T18:32:28;2.10;;;1.67;;
46318;SDS011;32042;50.916;2.926;2022-09-28T18:34:54;2.60;;;1.60;;
46318;SDS011;32042;50.916;2.926;2022-09-28T18:37:20;2.80;;;1.93;;
46318;SDS011;32042;50.916;2.926;2022-09-28T18:39:45;3.20;;;1.73;;
46318;SDS011;32042;50.916;2.926;2022-09-28T18:42:11;4.60;;;1.80;;
46318;SDS011;32042;50.916;2.926;2022-09-28T18:44:37;4.93;;;2.00;;
46318;SDS011;32042;50.916;2.926;2022-09-28T18:47:03;2.97;;;1.80;;